Aeroporto :
LOGIN :

Iscrizione | Disclaimer

   EN    FR    IT 

 










Sommario :    VFR   VFR Marginale   IFR   IFR Intensivo   IFR Molto Intensivo
Visibilità : 
Base nubi : 
>= 8 km
>= 3000ft
5 / 8 km
1000 / 3000 ft
1500m / 5 km
500 / 1000 ft
800 / 1500m
200 / 500 ft
< 800m
< 200 ft
Simboli :   Temporali  Nebbia  Neve Forte  Precipitazioni Forti  Vento > 20 kt
SIGMETs :   Varie  Temporali  Ghiacco  Turbolenza  Onda orograficha  Ceneri Vulcaniche






- Altitudine del aeroporto : 7 ft
- Codice IATA : XHE


LFTH - Hyeres

ULTIMO METAR :
  • 011830Z AUTO 08009KT CAVOK 10/02 Q1016 NOSIG

METARs OBSOLETI :
  • 011800Z AUTO 09010KT 060V120 CAVOK 10/02 Q1016 NOSIG
  • 011730Z AUTO 10010KT CAVOK 11/02 Q1016 NOSIG
  • 011700Z AUTO 10010KT 080V140 CAVOK 11/02 Q1017 NOSIG
  • 011630Z AUTO 11011KT CAVOK 12/02 Q1017 NOSIG
  • 011600Z AUTO 12011KT CAVOK 12/02 Q1017 NOSIG

TAF TAF LFTH
Valido dal 01 a 15 ore il 02 a 15 ore UTC


011400Z 0115/0215 11015KT CAVOK
BECMG 0120/0122 01005KT
BECMG 0210/0212 12010KT



MetMap, La meteo Aeronautica in un colpo d'occhio ! - Copyright ORBIFLY Dicembre 2007 - Disclaimer

ORBIFLY MET'MAP TEAM :

Programmazione e sviluppo : Alexandra Zaïnal
Concezione : Baudouin d'Aumeries
Aiuto per la programmazione : Marc-Olivier Méhu
Supporto tecnico e logistico : Manuel Goepfert
Aiuto per la traduzione : Arnaldo La Scala

Contatto : metmap@orbifly.com




FONTI E CREDITI :

   NOAA